createdAt,value
2022-10-24T00:00:01.055Z,78.60
2022-10-24T00:10:01.489Z,77.20
2022-10-24T00:20:01.285Z,22.90
2022-10-24T00:30:01.188Z,25.00
2022-10-24T00:40:01.054Z,20.60
2022-10-24T00:50:00.111Z,17.20
2022-10-24T01:00:01.008Z,16.60
2022-10-24T01:10:01.219Z,18.20
2022-10-24T01:20:01.203Z,19.00
2022-10-24T01:30:00.133Z,27.20
2022-10-24T01:40:01.002Z,18.30
2022-10-24T01:50:00.934Z,19.40
2022-10-24T02:00:01.327Z,15.00
2022-10-24T02:10:00.989Z,21.20
2022-10-24T02:20:00.161Z,12.90
2022-10-24T02:30:01.258Z,14.50
2022-10-24T02:40:01.090Z,15.00
2022-10-24T02:50:01.293Z,11.50
2022-10-24T03:00:01.068Z,14.80
2022-10-24T03:10:00.974Z,11.30
2022-10-24T03:20:00.988Z,14.70
2022-10-24T03:30:01.300Z,11.00
2022-10-24T03:40:00.161Z,10.40
2022-10-24T03:50:01.277Z,9.90
2022-10-24T04:00:02.326Z,14.30
2022-10-24T04:10:01.040Z,13.20
2022-10-24T04:20:00.154Z,13.50
2022-10-24T04:30:03.221Z,11.60
2022-10-24T04:40:01.271Z,17.30
2022-10-24T04:50:00.152Z,15.30
2022-10-24T05:00:01.051Z,12.40
2022-10-24T05:10:01.241Z,15.30
2022-10-24T05:20:01.068Z,23.50
2022-10-24T05:30:01.028Z,13.40
2022-10-24T05:40:01.043Z,17.70
2022-10-24T05:50:00.142Z,11.90
2022-10-24T06:00:01.083Z,14.40
2022-10-24T06:10:01.064Z,13.80
2022-10-24T06:20:00.993Z,16.00
2022-10-24T06:30:00.187Z,10.00
2022-10-24T06:40:00.155Z,10.10
2022-10-24T06:50:01.207Z,12.40
2022-10-24T07:00:01.329Z,12.50
2022-10-24T07:10:02.045Z,14.60
2022-10-24T07:20:02.824Z,16.90
2022-10-24T07:30:04.708Z,17.40
2022-10-24T07:40:01.181Z,19.30
2022-10-24T07:50:01.298Z,25.60
2022-10-24T08:00:01.404Z,28.30
2022-10-24T08:10:01.258Z,22.10
2022-10-24T08:20:01.937Z,28.80
2022-10-24T08:30:00.154Z,32.80
2022-10-24T08:40:01.263Z,23.40
2022-10-24T08:50:00.975Z,34.30
2022-10-24T09:00:01.018Z,28.30
2022-10-24T09:10:03.113Z,19.70
2022-10-24T09:20:01.016Z,35.60
2022-10-24T09:30:03.222Z,29.40
2022-10-24T09:40:00.138Z,22.80
2022-10-24T09:50:01.476Z,22.50
2022-10-24T10:00:01.037Z,26.50
2022-10-24T10:10:01.279Z,33.10
2022-10-24T10:20:02.273Z,37.50
2022-10-24T10:30:01.016Z,34.20
2022-10-24T10:40:01.017Z,27.90
2022-10-24T10:50:00.148Z,34.00
2022-10-24T11:00:00.190Z,24.10
2022-10-24T11:10:01.213Z,34.10
2022-10-24T11:20:00.144Z,29.70
2022-10-24T11:30:01.262Z,38.20
2022-10-24T11:40:00.157Z,49.90
2022-10-24T11:50:01.246Z,41.40
2022-10-24T12:00:00.144Z,47.60
2022-10-24T12:10:00.142Z,56.90
2022-10-24T12:20:03.227Z,50.10
2022-10-24T12:30:01.819Z,60.50
2022-10-24T12:50:00.997Z,69.10
2022-10-24T13:00:01.297Z,48.00
2022-10-24T13:10:01.465Z,62.40
2022-10-24T13:20:00.142Z,76.30
2022-10-24T13:30:01.325Z,69.50
2022-10-24T13:40:00.164Z,82.40
2022-10-24T13:50:01.220Z,88.20
2022-10-24T14:00:01.151Z,67.90
2022-10-24T14:10:00.274Z,66.30
2022-10-24T14:20:01.286Z,70.40
2022-10-24T14:30:00.992Z,52.80
2022-10-24T14:40:00.194Z,66.90
2022-10-24T14:50:01.327Z,60.60
2022-10-24T15:00:00.317Z,67.40
2022-10-24T15:10:01.055Z,62.20
2022-10-24T15:20:01.467Z,67.80
2022-10-24T15:30:01.047Z,60.60
2022-10-24T15:40:00.146Z,43.20
2022-10-24T15:50:01.889Z,51.00
2022-10-24T16:00:01.141Z,36.60
2022-10-24T16:10:01.120Z,34.10
2022-10-24T16:20:00.275Z,47.50
2022-10-24T16:30:01.478Z,34.80
2022-10-24T16:40:03.057Z,41.50
2022-10-24T16:50:01.521Z,29.80
2022-10-24T17:00:01.389Z,32.40
2022-10-24T17:10:02.865Z,42.50
2022-10-24T17:20:01.307Z,37.10
2022-10-24T17:30:03.234Z,32.40
2022-10-24T17:40:01.324Z,36.40
2022-10-24T17:50:01.324Z,34.20
2022-10-24T18:00:01.044Z,28.60
2022-10-24T18:10:01.728Z,37.40
2022-10-24T18:20:01.520Z,31.70
2022-10-24T18:30:00.174Z,27.80
2022-10-24T18:40:01.305Z,30.40
2022-10-24T18:50:01.300Z,24.10
2022-10-24T19:00:01.182Z,26.00
2022-10-24T19:10:02.366Z,20.40
2022-10-24T19:20:00.159Z,32.10
2022-10-24T19:30:00.133Z,35.20
2022-10-24T19:40:01.294Z,33.20
2022-10-24T19:50:00.150Z,25.60
2022-10-24T20:00:01.022Z,29.90
2022-10-24T20:10:00.155Z,24.90
2022-10-24T20:20:00.185Z,32.20
2022-10-24T20:30:01.226Z,38.70
2022-10-24T20:40:00.164Z,24.20
2022-10-24T20:50:01.878Z,29.30
2022-10-24T21:00:01.077Z,29.80
2022-10-24T21:10:01.053Z,25.50
2022-10-24T21:20:01.116Z,23.80
2022-10-24T21:30:01.024Z,23.20
2022-10-24T21:40:01.268Z,19.40
2022-10-24T21:50:01.218Z,32.60
2022-10-24T22:00:01.095Z,25.60
2022-10-24T22:10:02.201Z,22.60
2022-10-24T22:20:01.029Z,25.70
2022-10-24T22:30:01.000Z,14.20
2022-10-24T22:40:02.904Z,23.80
2022-10-24T22:50:00.195Z,16.70
2022-10-24T23:00:01.076Z,16.50
2022-10-24T23:10:01.241Z,15.00
2022-10-24T23:20:01.014Z,18.50
2022-10-24T23:30:01.294Z,19.40
2022-10-24T23:40:01.253Z,20.10
2022-10-24T23:50:01.533Z,22.20
